createdAt,value
2023-01-17T00:02:49.466Z,0.70
2023-01-17T00:08:09.985Z,1.00
2023-01-17T00:13:11.909Z,1.80
2023-01-17T00:18:13.735Z,2.03
2023-01-17T00:24:00.228Z,2.10
2023-01-17T00:29:02.182Z,1.70
2023-01-17T00:34:04.100Z,1.77
2023-01-17T00:39:05.819Z,1.73
2023-01-17T00:44:27.135Z,2.10
2023-01-17T00:49:47.582Z,2.00
2023-01-17T00:55:08.326Z,1.33
2023-01-17T01:00:29.332Z,2.13
2023-01-17T01:05:49.968Z,1.43
2023-01-17T01:11:10.710Z,1.47
2023-01-17T01:16:31.674Z,2.10
2023-01-17T01:21:52.859Z,2.17
2023-01-17T01:27:13.218Z,1.53
2023-01-17T01:32:33.733Z,1.47
2023-01-17T01:37:35.558Z,0.93
2023-01-17T01:42:37.579Z,1.47
2023-01-17T01:47:40.771Z,1.20
2023-01-17T01:52:46.674Z,1.93
2023-01-17T01:57:52.078Z,2.37
2023-01-17T02:02:57.539Z,2.30
2023-01-17T02:08:08.710Z,2.13
2023-01-17T02:13:12.785Z,2.67
2023-01-17T02:18:24.131Z,2.70
2023-01-17T02:23:44.152Z,2.97
2023-01-17T02:29:16.266Z,3.67
2023-01-17T02:34:47.136Z,3.77
2023-01-17T02:39:55.409Z,3.37
2023-01-17T02:44:57.454Z,3.93
2023-01-17T02:50:12.269Z,4.27
2023-01-17T02:55:32.853Z,4.20
2023-01-17T03:00:50.423Z,4.73
2023-01-17T03:05:59.768Z,4.70
2023-01-17T03:11:01.789Z,5.20
2023-01-17T03:16:08.060Z,5.03
2023-01-17T03:21:10.424Z,5.53
2023-01-17T03:26:12.450Z,4.83
2023-01-17T03:31:15.948Z,4.60
2023-01-17T03:36:18.567Z,5.07
2023-01-17T03:41:20.443Z,4.43
2023-01-17T03:46:24.869Z,4.87
2023-01-17T03:51:27.210Z,4.93
2023-01-17T03:56:29.265Z,4.73
2023-01-17T04:01:31.351Z,4.53
2023-01-17T04:06:33.573Z,5.00
2023-01-17T04:11:35.384Z,4.90
2023-01-17T04:16:38.331Z,4.23
2023-01-17T04:21:40.464Z,4.50
2023-01-17T04:26:42.372Z,5.60
2023-01-17T04:31:44.299Z,5.10
2023-01-17T04:36:46.583Z,5.73
2023-01-17T04:41:48.459Z,5.43
2023-01-17T04:46:50.290Z,5.80
2023-01-17T04:51:52.373Z,5.87
2023-01-17T04:56:54.232Z,5.27
2023-01-17T05:01:56.459Z,6.07
2023-01-17T05:06:58.529Z,4.70
2023-01-17T05:12:00.833Z,5.87
2023-01-17T05:17:05.487Z,5.47
2023-01-17T05:22:14.853Z,5.97
2023-01-17T05:27:16.799Z,6.43
2023-01-17T05:32:18.795Z,5.93
2023-01-17T05:37:20.771Z,5.30
2023-01-17T05:42:22.639Z,4.43
2023-01-17T05:47:24.435Z,4.93
2023-01-17T05:52:26.292Z,4.67
2023-01-17T05:57:28.263Z,5.50
2023-01-17T06:02:30.392Z,5.00
2023-01-17T06:07:32.914Z,5.43
2023-01-17T06:12:34.706Z,6.27
2023-01-17T06:17:37.122Z,5.27
2023-01-17T06:22:39.373Z,5.43
2023-01-17T06:27:41.297Z,5.33
2023-01-17T06:32:43.500Z,6.53
2023-01-17T06:37:45.384Z,5.00
2023-01-17T06:42:47.582Z,5.20
2023-01-17T06:47:49.340Z,5.07
2023-01-17T06:52:56.558Z,5.80
2023-01-17T06:57:59.585Z,6.03
2023-01-17T07:03:02.089Z,4.63
2023-01-17T07:08:04.197Z,4.70
2023-01-17T07:13:06.119Z,5.37
2023-01-17T07:18:08.148Z,5.40
2023-01-17T07:23:10.057Z,5.27
2023-01-17T07:28:12.050Z,5.53
2023-01-17T07:33:13.928Z,6.10
2023-01-17T07:38:18.029Z,5.57
2023-01-17T07:43:19.881Z,5.77
2023-01-17T07:48:24.288Z,5.33
2023-01-17T07:53:29.845Z,6.17
2023-01-17T07:58:32.464Z,5.93
2023-01-17T08:03:39.726Z,6.17
2023-01-17T08:08:41.896Z,6.17
2023-01-17T08:13:44.263Z,5.67
2023-01-17T08:18:46.251Z,7.00
2023-01-17T08:23:50.012Z,6.57
2023-01-17T08:28:57.167Z,6.50
2023-01-17T08:33:59.291Z,6.83
2023-01-17T08:39:01.558Z,6.77
2023-01-17T08:44:03.598Z,6.30
2023-01-17T08:49:05.645Z,5.53
2023-01-17T08:54:09.507Z,6.20
2023-01-17T08:59:12.173Z,6.40
2023-01-17T09:04:14.748Z,6.20
2023-01-17T09:09:17.576Z,7.20
2023-01-17T09:14:19.590Z,6.13
2023-01-17T09:19:21.710Z,8.30
2023-01-17T09:24:23.715Z,7.10
2023-01-17T09:29:25.564Z,5.97
2023-01-17T09:34:27.737Z,6.53
2023-01-17T09:39:29.760Z,5.67
2023-01-17T09:44:47.741Z,6.70
2023-01-17T09:49:49.813Z,6.17
2023-01-17T09:54:51.984Z,6.93
2023-01-17T10:00:38.605Z,6.40
2023-01-17T10:05:58.897Z,6.13
2023-01-17T10:11:00.840Z,7.33
2023-01-17T10:16:37.479Z,7.43
2023-01-17T10:22:21.004Z,10.37
2023-01-17T10:27:37.454Z,6.43
2023-01-17T10:32:44.958Z,6.93
2023-01-17T10:37:49.046Z,8.10
2023-01-17T10:42:57.754Z,8.33
2023-01-17T10:48:33.763Z,8.20
2023-01-17T10:53:49.228Z,7.87
2023-01-17T10:59:05.263Z,6.33
2023-01-17T11:04:20.655Z,7.23
2023-01-17T11:09:38.113Z,6.37
2023-01-17T11:14:40.291Z,5.57
2023-01-17T11:19:45.453Z,3.90
2023-01-17T11:24:51.321Z,4.03
2023-01-17T11:30:15.711Z,2.13
2023-01-17T11:35:21.169Z,1.83
2023-01-17T11:40:28.849Z,1.67
2023-01-17T11:45:33.600Z,2.27
2023-01-17T11:50:38.703Z,2.60
2023-01-17T11:55:53.424Z,2.60
2023-01-17T12:01:02.034Z,2.70
2023-01-17T12:06:47.830Z,2.70
2023-01-17T12:12:40.098Z,2.60
2023-01-17T12:18:01.608Z,2.80
2023-01-17T12:23:16.160Z,2.13
2023-01-17T12:28:46.123Z,2.27
2023-01-17T12:34:08.312Z,2.23
2023-01-17T12:39:14.148Z,2.47
2023-01-17T12:44:19.735Z,1.10
2023-01-17T12:49:41.700Z,1.40
2023-01-17T12:54:47.420Z,2.20
2023-01-17T13:00:06.707Z,2.90
2023-01-17T13:05:18.472Z,2.37
2023-01-17T13:10:32.224Z,2.70
2023-01-17T13:15:38.983Z,2.27
2023-01-17T13:21:06.039Z,2.30
2023-01-17T13:26:34.087Z,1.87
2023-01-17T13:31:48.365Z,2.07
2023-01-17T13:37:09.309Z,2.17
2023-01-17T13:42:38.626Z,2.20
2023-01-17T13:47:41.573Z,2.03
2023-01-17T13:52:43.543Z,1.80
2023-01-17T13:57:46.634Z,1.70
2023-01-17T14:02:50.554Z,2.20
2023-01-17T14:07:57.246Z,2.07
2023-01-17T14:12:59.641Z,2.00
2023-01-17T14:18:03.577Z,2.10
2023-01-17T14:23:23.275Z,2.23
2023-01-17T14:28:29.299Z,1.73
2023-01-17T14:33:37.102Z,1.90
2023-01-17T14:38:44.492Z,1.50
2023-01-17T14:43:48.243Z,1.57
2023-01-17T14:48:52.409Z,1.60
2023-01-17T14:53:59.635Z,1.77
2023-01-17T14:59:20.131Z,1.80
2023-01-17T15:04:29.992Z,1.80
2023-01-17T15:09:37.096Z,2.00
2023-01-17T15:14:43.433Z,1.27
2023-01-17T15:19:50.079Z,1.50
2023-01-17T15:24:53.561Z,2.13
2023-01-17T15:29:59.162Z,1.67
2023-01-17T15:35:02.889Z,1.50
2023-01-17T15:40:15.899Z,1.70
2023-01-17T15:45:23.031Z,1.33
2023-01-17T15:50:31.085Z,1.57
2023-01-17T15:55:35.895Z,1.90
2023-01-17T16:00:46.913Z,2.30
2023-01-17T16:05:50.561Z,3.07
2023-01-17T16:11:06.825Z,3.93
2023-01-17T16:16:18.895Z,3.77
2023-01-17T16:21:26.755Z,3.50
2023-01-17T16:26:29.292Z,3.93
2023-01-17T16:31:31.416Z,4.03
2023-01-17T16:36:34.914Z,5.37
2023-01-17T16:41:36.761Z,5.23
2023-01-17T16:46:39.085Z,6.30
2023-01-17T16:51:41.362Z,3.27
2023-01-17T16:56:43.570Z,5.20
2023-01-17T17:01:49.211Z,4.93
2023-01-17T17:06:51.087Z,5.57
2023-01-17T17:11:53.082Z,6.47
2023-01-17T17:16:54.888Z,5.00
2023-01-17T17:22:06.582Z,6.03
2023-01-17T17:27:08.654Z,8.43
2023-01-17T17:32:11.905Z,8.23
2023-01-17T17:37:16.089Z,6.10
2023-01-17T17:42:20.249Z,6.70
2023-01-17T17:47:24.059Z,8.87
2023-01-17T17:52:25.895Z,6.80
2023-01-17T17:57:27.870Z,7.33
2023-01-17T18:02:29.951Z,7.30
2023-01-17T18:07:34.253Z,8.53
2023-01-17T18:12:36.118Z,6.97
2023-01-17T18:17:38.133Z,7.67
2023-01-17T18:22:40.791Z,6.60
2023-01-17T18:27:44.906Z,6.93
2023-01-17T18:32:49.843Z,7.70
2023-01-17T18:37:52.587Z,7.67
2023-01-17T18:43:01.886Z,7.43
2023-01-17T18:48:04.248Z,7.50
2023-01-17T18:53:06.150Z,7.93
2023-01-17T18:58:09.129Z,7.30
2023-01-17T19:03:11.114Z,7.53
2023-01-17T19:08:13.045Z,6.47
2023-01-17T19:13:15.008Z,6.67
2023-01-17T19:18:17.172Z,6.30
2023-01-17T19:23:19.120Z,6.40
2023-01-17T19:28:21.782Z,6.70
2023-01-17T19:33:23.978Z,8.27
2023-01-17T19:38:28.082Z,7.17
2023-01-17T19:43:30.233Z,7.27
2023-01-17T19:48:34.477Z,7.50
2023-01-17T19:53:38.099Z,8.97
2023-01-17T19:58:41.034Z,12.67
2023-01-17T20:03:48.632Z,42.13
2023-01-17T20:08:50.527Z,11.63
2023-01-17T20:13:56.703Z,9.67
2023-01-17T20:18:59.375Z,10.13
2023-01-17T20:24:04.803Z,9.07
2023-01-17T20:29:13.577Z,10.00
2023-01-17T20:34:18.672Z,11.23
2023-01-17T20:39:20.581Z,11.53
2023-01-17T20:44:23.979Z,14.43
2023-01-17T20:49:25.840Z,16.23
2023-01-17T20:54:27.804Z,20.00
2023-01-17T20:59:29.748Z,18.33
2023-01-17T21:04:31.691Z,18.87
2023-01-17T21:09:34.134Z,26.57
2023-01-17T21:14:37.555Z,26.10
2023-01-17T21:19:46.912Z,21.80
2023-01-17T21:24:48.961Z,21.47
2023-01-17T21:29:52.913Z,16.90
2023-01-17T21:34:55.559Z,13.40
2023-01-17T21:39:57.961Z,11.97
2023-01-17T21:44:59.938Z,10.53
2023-01-17T21:50:04.151Z,11.27
2023-01-17T21:55:24.916Z,9.33
2023-01-17T22:00:26.908Z,9.27
2023-01-17T22:05:31.062Z,8.23
2023-01-17T22:10:44.438Z,7.70
2023-01-17T22:15:57.961Z,8.30
2023-01-17T22:21:07.297Z,7.70
2023-01-17T22:26:12.532Z,7.90
2023-01-17T22:31:16.916Z,7.43
2023-01-17T22:36:20.264Z,8.17
2023-01-17T22:41:24.961Z,11.53
2023-01-17T22:46:30.686Z,11.57
2023-01-17T22:51:32.733Z,11.07
2023-01-17T22:56:34.631Z,10.77
2023-01-17T23:01:37.410Z,10.40
2023-01-17T23:06:43.165Z,10.60
2023-01-17T23:11:49.663Z,9.57
2023-01-17T23:17:15.741Z,9.67
2023-01-17T23:22:19.877Z,9.03
2023-01-17T23:28:00.649Z,11.07
2023-01-17T23:33:03.728Z,10.17
2023-01-17T23:38:24.032Z,10.43
2023-01-17T23:43:25.855Z,11.13
2023-01-17T23:48:28.364Z,9.80
2023-01-17T23:53:30.131Z,11.57
2023-01-17T23:58:33.048Z,11.30
